Time;durP1;ratioP1;P1;durP2;ratioP2;P2;SDS_P1;SDS_P2;PMS_P1;PMS_P2;Temp;Humidity;BMP_temperature;BMP_pressure;BME280_temperature;BME280_humidity;BME280_pressure;Samples;Min_cycle;Max_cycle;Signal;HPM_P1;HPM_P2
2022/07/15 00:01:15;;;;;;;1.35;0.68;;;16.00;99.90;;;;;;5017473;28;20314;-60
2022/07/15 00:03:41;;;;;;;1.00;0.50;;;16.10;99.90;;;;;;5035292;28;20267;-60
2022/07/15 00:06:06;;;;;;;0.95;0.50;;;16.10;99.90;;;;;;5034748;28;20681;-60
2022/07/15 00:08:32;;;;;;;1.30;0.43;;;16.10;99.90;;;;;;5017098;28;20187;-59
2022/07/15 00:10:58;;;;;;;0.40;0.40;;;16.10;99.90;;;;;;5034674;28;20215;-60
2022/07/15 00:13:25;;;;;;;0.65;0.43;;;16.10;99.90;;;;;;5034574;28;20263;-60
2022/07/15 00:15:51;;;;;;;0.88;0.43;;;16.00;99.90;;;;;;5034335;28;20648;-60
2022/07/15 00:18:16;;;;;;;0.45;0.45;;;16.00;99.90;;;;;;5034668;28;20211;-60
2022/07/15 00:20:42;;;;;;;0.47;0.47;;;15.90;99.90;;;;;;5017034;28;20633;-60
2022/07/15 00:23:08;;;;;;;0.40;0.40;;;15.90;99.90;;;;;;5034613;28;20204;-59
2022/07/15 00:25:34;;;;;;;0.40;0.40;;;15.80;99.90;;;;;;5034374;28;20204;-60
2022/07/15 00:28:04;;;;;;;0.38;0.35;;;15.80;99.90;;;;;;5034227;28;20592;-60
2022/07/15 00:30:32;;;;;;;0.40;0.32;;;15.70;99.90;;;;;;5034078;28;20219;-60
2022/07/15 00:32:58;;;;;;;1.33;0.95;;;15.70;99.90;;;;;;5034481;28;20168;-60
2022/07/15 00:35:24;;;;;;;0.30;0.30;;;15.70;99.90;;;;;;5034343;28;20172;-60
2022/07/15 00:37:50;;;;;;;0.50;0.50;;;15.60;99.90;;;;;;5034585;28;20226;-60
2022/07/15 00:40:16;;;;;;;0.77;0.60;;;15.70;99.90;;;;;;5034059;28;20186;-60
2022/07/15 00:42:45;;;;;;;0.43;0.43;;;15.60;99.90;;;;;;5016423;28;20625;-60
2022/07/15 00:45:20;;;;;;;0.60;0.57;;;15.60;99.90;;;;;;5033838;28;20659;-60
2022/07/15 00:47:48;;;;;;;0.40;0.40;;;15.60;99.90;;;;;;5034063;28;20207;-60
2022/07/15 00:50:15;;;;;;;0.60;0.40;;;15.70;99.90;;;;;;5033877;28;20195;-60
2022/07/15 00:52:45;;;;;;;0.40;0.40;;;15.70;99.90;;;;;;5032996;28;20172;-60
2022/07/15 00:55:12;;;;;;;0.60;0.60;;;15.70;99.90;;;;;;5033789;28;20708;-60
2022/07/15 00:57:44;;;;;;;0.40;0.40;;;15.70;99.90;;;;;;5015894;28;20172;-60
2022/07/15 01:00:12;;;;;;;0.73;0.70;;;15.60;99.90;;;;;;5033838;28;20625;-60
2022/07/15 01:02:40;;;;;;;0.65;0.60;;;15.60;99.90;;;;;;5033856;28;20653;-60
2022/07/15 01:05:07;;;;;;;0.50;0.50;;;15.50;99.90;;;;;;5033637;28;20172;-60
2022/07/15 01:07:33;;;;;;;0.70;0.70;;;15.50;99.90;;;;;;5033645;28;20636;-60
2022/07/15 01:10:00;;;;;;;1.05;0.68;;;15.50;99.90;;;;;;5033519;28;20203;-61
2022/07/15 01:12:27;;;;;;;0.60;0.60;;;15.50;99.90;;;;;;5033987;28;20179;-60
2022/07/15 01:14:53;;;;;;;0.50;0.50;;;15.40;99.90;;;;;;5033623;28;20310;-60
2022/07/15 01:17:19;;;;;;;1.27;0.70;;;15.40;99.90;;;;;;5033900;28;20294;-60
2022/07/15 01:19:44;;;;;;;1.73;0.70;;;15.30;99.90;;;;;;5033570;28;20648;-59
2022/07/15 01:22:10;;;;;;;0.60;0.50;;;15.20;99.90;;;;;;5033370;28;20168;-60
2022/07/15 01:24:36;;;;;;;1.75;0.75;;;15.20;99.90;;;;;;5015694;28;20533;-60
2022/07/15 01:27:01;;;;;;;0.65;0.52;;;15.10;99.90;;;;;;5033568;28;20524;-60
2022/07/15 01:29:28;;;;;;;0.77;0.50;;;15.00;99.90;;;;;;5033555;28;20180;-60
2022/07/15 01:31:54;;;;;;;0.50;0.40;;;14.90;99.90;;;;;;5033339;28;20559;-60
2022/07/15 01:34:20;;;;;;;1.60;0.60;;;14.70;99.90;;;;;;5033318;28;20230;-58
2022/07/15 01:36:46;;;;;;;0.80;0.80;;;14.60;99.90;;;;;;5033343;28;20625;-60
2022/07/15 01:39:12;;;;;;;0.50;0.50;;;14.60;99.90;;;;;;5033252;28;20260;-60
2022/07/15 01:41:37;;;;;;;0.65;0.63;;;14.70;99.90;;;;;;5016077;28;20210;-60
2022/07/15 01:44:04;;;;;;;1.13;0.80;;;14.70;99.90;;;;;;5033414;28;20187;-60
2022/07/15 01:46:29;;;;;;;0.47;0.47;;;14.70;99.90;;;;;;4999266;28;20561;-60
2022/07/15 01:51:39;;;;;;;0.60;0.60;;;14.70;99.90;;;;;;5033102;28;20300;-60
2022/07/15 01:54:05;;;;;;;0.60;0.60;;;14.50;99.90;;;;;;5032939;28;20676;-60
2022/07/15 01:56:36;;;;;;;0.73;0.73;;;14.40;99.90;;;;;;5033488;28;20176;-60
2022/07/15 01:59:01;;;;;;;1.38;0.60;;;14.40;99.90;;;;;;5033089;28;20187;-60
2022/07/15 02:01:27;;;;;;;0.60;0.60;;;14.40;99.90;;;;;;5015443;28;20235;-60
2022/07/15 02:03:53;;;;;;;0.55;0.50;;;14.40;99.90;;;;;;5034013;28;20629;-60
2022/07/15 02:06:18;;;;;;;1.02;0.63;;;14.50;99.90;;;;;;5019240;28;20168;-60
2022/07/15 02:08:44;;;;;;;1.90;0.70;;;14.40;99.90;;;;;;5019426;28;20183;-59
2022/07/15 02:11:11;;;;;;;1.02;0.60;;;14.30;99.90;;;;;;5036720;28;20564;-60
2022/07/15 02:13:37;;;;;;;2.28;0.98;;;14.10;99.90;;;;;;5003438;28;20191;-60
2022/07/15 02:16:02;;;;;;;1.73;0.80;;;14.00;99.90;;;;;;5036844;28;20633;-60
2022/07/15 02:18:28;;;;;;;0.50;0.50;;;14.10;99.90;;;;;;5036697;28;20176;-60
2022/07/15 02:20:54;;;;;;;0.55;0.55;;;14.20;99.90;;;;;;5036696;28;20183;-60
2022/07/15 02:23:20;;;;;;;0.68;0.68;;;14.30;99.90;;;;;;5019062;28;20528;-58
2022/07/15 02:25:45;;;;;;;0.98;0.60;;;14.20;99.90;;;;;;5036655;28;20180;-59
2022/07/15 02:28:11;;;;;;;0.85;0.40;;;14.20;99.90;;;;;;5036598;28;20238;-59
2022/07/15 02:30:38;;;;;;;1.63;0.90;;;14.20;99.90;;;;;;5018813;28;20192;-60
2022/07/15 02:33:05;;;;;;;0.90;0.60;;;14.20;99.90;;;;;;5018722;28;20184;-60
2022/07/15 02:35:31;;;;;;;0.80;0.70;;;14.20;99.90;;;;;;5036705;28;20168;-60
2022/07/15 02:37:57;;;;;;;0.68;0.68;;;14.20;99.90;;;;;;5036574;28;20168;-59
2022/07/15 02:40:23;;;;;;;1.98;1.08;;;14.10;99.90;;;;;;5036408;28;20192;-60
2022/07/15 02:42:52;;;;;;;0.93;0.60;;;14.10;99.90;;;;;;5018757;28;20541;-60
2022/07/15 02:45:19;;;;;;;0.73;0.73;;;14.20;99.90;;;;;;5036298;28;20637;-60
2022/07/15 02:47:46;;;;;;;0.95;0.60;;;14.20;99.90;;;;;;5036184;28;20179;-60
2022/07/15 02:50:12;;;;;;;0.65;0.65;;;14.10;99.90;;;;;;5036021;28;20291;-60
2022/07/15 02:52:38;;;;;;;0.93;0.52;;;14.00;99.90;;;;;;5036001;28;20184;-60
2022/07/15 02:55:05;;;;;;;0.98;0.77;;;13.90;99.90;;;;;;5002305;28;20259;-60
2022/07/15 02:57:31;;;;;;;0.50;0.50;;;13.90;99.90;;;;;;5036271;28;20226;-60
2022/07/15 02:59:56;;;;;;;1.15;0.85;;;13.90;99.90;;;;;;5001984;28;20176;-60
2022/07/15 03:02:22;;;;;;;1.17;0.70;;;13.90;99.90;;;;;;5035811;28;20215;-60
2022/07/15 03:04:48;;;;;;;0.73;0.73;;;13.90;99.90;;;;;;5035791;28;20270;-60
2022/07/15 03:07:13;;;;;;;0.65;0.65;;;13.90;99.90;;;;;;5035832;28;20183;-60
2022/07/15 03:09:39;;;;;;;0.63;0.60;;;13.90;99.90;;;;;;5036169;28;20200;-60
2022/07/15 03:12:05;;;;;;;0.82;0.70;;;13.80;99.90;;;;;;5035639;28;20212;-60
2022/07/15 03:14:31;;;;;;;0.52;0.52;;;13.80;99.90;;;;;;5035642;28;20190;-60
2022/07/15 03:16:56;;;;;;;0.75;0.40;;;13.80;99.90;;;;;;5034523;28;20199;-60
2022/07/15 03:19:22;;;;;;;0.80;0.75;;;13.80;99.90;;;;;;5035550;28;20281;-60
2022/07/15 03:21:48;;;;;;;0.75;0.75;;;13.80;99.90;;;;;;5035738;28;20190;-60
2022/07/15 03:24:14;;;;;;;0.90;0.68;;;13.70;99.90;;;;;;5035628;28;20251;-60
2022/07/15 03:26:40;;;;;;;1.35;0.40;;;13.80;99.90;;;;;;5035384;28;20211;-60
2022/07/15 03:29:06;;;;;;;1.20;0.73;;;13.80;99.90;;;;;;5035433;28;20629;-60
2022/07/15 03:31:32;;;;;;;0.88;0.60;;;13.80;99.90;;;;;;5035253;28;20258;-59
2022/07/15 03:33:58;;;;;;;0.60;0.60;;;13.70;99.90;;;;;;5017696;28;20188;-60
2022/07/15 03:36:24;;;;;;;2.22;1.08;;;13.70;99.90;;;;;;5035442;28;20536;-60
2022/07/15 03:38:51;;;;;;;0.70;0.57;;;13.70;99.90;;;;;;5017522;28;20565;-60
2022/07/15 03:41:21;;;;;;;0.52;0.52;;;13.70;99.90;;;;;;5017831;28;20179;-60
2022/07/15 03:43:47;;;;;;;1.58;0.70;;;13.60;99.90;;;;;;5017581;28;20180;-60
2022/07/15 03:46:15;;;;;;;1.05;0.75;;;13.60;99.90;;;;;;5034955;28;20231;-60
2022/07/15 03:48:41;;;;;;;1.13;0.63;;;13.60;99.90;;;;;;5035187;28;20182;-61
2022/07/15 03:51:07;;;;;;;0.52;0.50;;;13.40;99.90;;;;;;5034885;28;20200;-60
2022/07/15 03:53:33;;;;;;;1.02;0.60;;;13.40;99.90;;;;;;5034832;28;20203;-60
2022/07/15 03:55:59;;;;;;;0.85;0.52;;;13.30;99.90;;;;;;5017357;28;20183;-60
2022/07/15 03:58:24;;;;;;;0.77;0.63;;;13.20;99.90;;;;;;5000985;28;20193;-60
2022/07/15 04:00:50;;;;;;;0.73;0.63;;;13.30;99.90;;;;;;5017060;28;20553;-60
2022/07/15 04:03:16;;;;;;;0.95;0.65;;;13.30;99.90;;;;;;5034722;28;20661;-60
2022/07/15 04:05:42;;;;;;;1.50;0.68;;;13.40;99.90;;;;;;5017129;28;20266;-60
2022/07/15 04:08:08;;;;;;;1.33;0.60;;;13.40;99.90;;;;;;5017095;28;20172;-59
2022/07/15 04:10:34;;;;;;;2.08;0.55;;;13.40;99.90;;;;;;5034587;28;20238;-60
2022/07/15 04:13:00;;;;;;;1.42;0.93;;;13.40;99.90;;;;;;5034515;28;20180;-60
2022/07/15 04:15:25;;;;;;;0.75;0.60;;;13.40;99.90;;;;;;5016879;28;20198;-60
2022/07/15 04:17:51;;;;;;;0.90;0.70;;;13.60;99.90;;;;;;5034661;28;20340;-60
2022/07/15 04:20:17;;;;;;;0.98;0.85;;;13.60;99.90;;;;;;5034372;28;20191;-60
2022/07/15 04:22:46;;;;;;;0.60;0.60;;;13.70;99.90;;;;;;5016943;28;20186;-60
2022/07/15 04:25:16;;;;;;;0.50;0.50;;;13.80;99.90;;;;;;5034436;28;20203;-59
2022/07/15 04:27:43;;;;;;;1.15;0.60;;;13.90;99.90;;;;;;5034011;28;20537;-60
2022/07/15 04:30:09;;;;;;;0.40;0.40;;;13.90;99.90;;;;;;5034046;28;20637;-60
2022/07/15 04:32:36;;;;;;;1.08;0.68;;;14.00;99.90;;;;;;5034395;28;20187;-60
2022/07/15 04:35:02;;;;;;;0.60;0.60;;;14.10;99.90;;;;;;5034345;28;20176;-60
2022/07/15 04:37:28;;;;;;;0.70;0.70;;;14.20;99.90;;;;;;5016622;28;20211;-60
2022/07/15 04:39:55;;;;;;;1.00;0.70;;;14.20;99.90;;;;;;5033940;28;20199;-61
2022/07/15 04:42:22;;;;;;;0.70;0.50;;;14.30;99.90;;;;;;5033979;28;20604;-60
2022/07/15 04:44:49;;;;;;;0.65;0.65;;;14.40;99.90;;;;;;5033886;28;20637;-62
2022/07/15 04:47:16;;;;;;;1.08;0.80;;;14.40;99.90;;;;;;5034021;28;20172;-60
2022/07/15 04:52:26;;;;;;;1.70;0.77;;;14.50;99.90;;;;;;5034154;28;20191;-60
2022/07/15 04:54:53;;;;;;;1.63;0.70;;;14.50;99.90;;;;;;5033697;28;20177;-59
2022/07/15 04:57:19;;;;;;;1.13;0.70;;;14.50;99.90;;;;;;5033750;28;20681;-60
2022/07/15 04:59:45;;;;;;;0.98;0.50;;;14.60;99.90;;;;;;5033717;28;20176;-60
2022/07/15 05:02:11;;;;;;;0.88;0.65;;;14.60;99.90;;;;;;5033652;28;20183;-60
2022/07/15 05:04:38;;;;;;;1.02;0.68;;;14.60;99.90;;;;;;5033741;28;20176;-60
2022/07/15 05:07:04;;;;;;;0.60;0.60;;;14.70;99.90;;;;;;5033645;28;20178;-61
2022/07/15 05:09:31;;;;;;;1.00;0.68;;;14.80;99.90;;;;;;5033470;28;20663;-60
2022/07/15 05:11:56;;;;;;;1.48;1.00;;;14.80;99.90;;;;;;5033444;28;20198;-60
2022/07/15 05:14:22;;;;;;;1.30;0.70;;;14.90;99.90;;;;;;5033487;28;20263;-60
2022/07/15 05:16:48;;;;;;;1.33;0.70;;;15.00;99.90;;;;;;5033564;28;20218;-60
2022/07/15 05:19:14;;;;;;;0.98;0.93;;;15.10;99.90;;;;;;5033517;28;20171;-60
2022/07/15 05:21:40;;;;;;;0.88;0.65;;;15.10;99.90;;;;;;5033427;28;20184;-60
2022/07/15 05:24:06;;;;;;;0.55;0.55;;;15.20;99.90;;;;;;5015424;28;20172;-61
2022/07/15 05:26:32;;;;;;;1.73;0.75;;;15.30;99.90;;;;;;5033554;28;20180;-57
2022/07/15 05:28:57;;;;;;;1.35;0.90;;;15.40;99.90;;;;;;5016004;28;20172;-61
2022/07/15 05:31:23;;;;;;;0.73;0.70;;;15.50;99.90;;;;;;5033085;28;20219;-60
2022/07/15 05:33:49;;;;;;;0.70;0.70;;;15.50;99.90;;;;;;5033674;28;20199;-60
2022/07/15 05:36:15;;;;;;;0.98;0.60;;;15.60;99.90;;;;;;5033240;28;20238;-61
2022/07/15 05:38:42;;;;;;;1.05;0.90;;;15.70;99.90;;;;;;5017020;28;20176;-60
2022/07/15 05:41:08;;;;;;;1.40;0.73;;;15.70;99.90;;;;;;5039771;28;20180;-59
2022/07/15 05:43:35;;;;;;;1.50;0.60;;;15.80;99.90;;;;;;5039922;28;20170;-60
2022/07/15 05:46:01;;;;;;;0.88;0.43;;;15.90;99.90;;;;;;5038408;28;20218;-58
2022/07/15 05:48:26;;;;;;;0.40;0.40;;;16.00;99.90;;;;;;5039338;28;20770;-60
2022/07/15 05:50:52;;;;;;;0.50;0.50;;;16.10;99.90;;;;;;5039586;28;20313;-60
2022/07/15 05:53:18;;;;;;;1.08;0.60;;;16.20;99.90;;;;;;5004853;28;20180;-60
2022/07/15 05:55:44;;;;;;;0.75;0.40;;;16.20;99.90;;;;;;5038946;28;20254;-60
2022/07/15 05:58:10;;;;;;;1.13;0.40;;;16.40;99.90;;;;;;5021055;28;20208;-60
2022/07/15 06:00:37;;;;;;;0.52;0.50;;;16.50;99.90;;;;;;5005642;28;20180;-61
2022/07/15 06:03:03;;;;;;;1.20;0.40;;;16.60;99.90;;;;;;5039772;28;20170;-62
2022/07/15 06:05:29;;;;;;;0.43;0.43;;;16.70;99.90;;;;;;5022047;28;20633;-62
2022/07/15 06:07:55;;;;;;;0.65;0.35;;;16.90;99.90;;;;;;5039613;28;20191;-61
2022/07/15 06:10:22;;;;;;;0.52;0.40;;;17.00;99.90;;;;;;5021731;28;20220;-61
2022/07/15 06:12:48;;;;;;;0.82;0.40;;;17.00;99.90;;;;;;5039684;28;20318;-62
2022/07/15 06:15:14;;;;;;;0.32;0.32;;;17.20;99.90;;;;;;5039659;28;20168;-62
2022/07/15 06:17:40;;;;;;;0.60;0.60;;;17.30;99.90;;;;;;5039574;28;20183;-61
2022/07/15 06:20:07;;;;;;;0.88;0.82;;;17.40;99.90;;;;;;5039639;28;20179;-61
2022/07/15 06:22:33;;;;;;;0.47;0.40;;;17.50;99.90;;;;;;5039418;28;20168;-61
2022/07/15 06:24:59;;;;;;;0.22;0.22;;;17.60;99.90;;;;;;5021667;28;20188;-61
2022/07/15 06:27:24;;;;;;;0.30;0.25;;;17.60;99.90;;;;;;5021884;28;20267;-61
2022/07/15 06:29:51;;;;;;;0.32;0.32;;;17.60;99.90;;;;;;5039544;28;20203;-61
2022/07/15 06:32:17;;;;;;;1.35;0.35;;;17.50;99.90;;;;;;5039390;28;20203;-61
2022/07/15 06:34:44;;;;;;;0.40;0.38;;;17.40;99.90;;;;;;5039401;28;20536;-59
2022/07/15 06:37:09;;;;;;;0.22;0.20;;;17.50;99.90;;;;;;5039277;28;20310;-61
2022/07/15 06:39:35;;;;;;;0.30;0.30;;;17.70;99.90;;;;;;5039534;28;20222;-62
2022/07/15 06:42:01;;;;;;;0.10;0.10;;;17.80;99.90;;;;;;5039452;28;20176;-62
2022/07/15 06:44:27;;;;;;;0.10;0.10;;;17.90;99.90;;;;;;5039422;28;20255;-62
2022/07/15 06:46:53;;;;;;;0.30;0.20;;;17.90;99.90;;;;;;5021836;28;20214;-62
2022/07/15 06:49:19;;;;;;;0.20;0.10;;;18.10;99.90;;;;;;5039315;28;20226;-62
2022/07/15 06:51:44;;;;;;;0.60;0.15;;;18.10;99.90;;;;;;5018566;28;20204;-61
2022/07/15 06:54:11;;;;;;;0.65;0.30;;;18.20;99.90;;;;;;5036344;28;20579;-61
2022/07/15 06:56:37;;;;;;;0.35;0.15;;;18.10;99.90;;;;;;5036255;28;20225;-62
2022/07/15 06:59:03;;;;;;;0.52;0.20;;;18.20;99.90;;;;;;5036412;28;20632;-62
2022/07/15 07:01:29;;;;;;;0.20;0.20;;;18.40;99.90;;;;;;5036099;28;20188;-61
2022/07/15 07:03:55;;;;;;;0.10;0.10;;;19.00;99.90;;;;;;5018405;28;20168;-62
2022/07/15 07:06:21;;;;;;;0.10;0.10;;;19.20;99.90;;;;;;5035831;28;20256;-61
2022/07/15 07:08:47;;;;;;;0.35;0.35;;;19.20;99.90;;;;;;5036240;28;20230;-61
2022/07/15 07:11:17;;;;;;;0.40;0.30;;;18.90;99.90;;;;;;5036019;28;20214;-61
2022/07/15 07:13:42;;;;;;;1.40;0.45;;;18.80;99.90;;;;;;5002540;28;20168;-62
2022/07/15 07:16:08;;;;;;;0.95;0.28;;;19.00;99.90;;;;;;5035748;28;20184;-61
2022/07/15 07:18:34;;;;;;;0.30;0.30;;;18.90;99.90;;;;;;5017891;28;20184;-61
2022/07/15 07:21:01;;;;;;;0.30;0.30;;;18.90;99.90;;;;;;5035530;28;20623;-61
2022/07/15 07:23:27;;;;;;;0.80;0.57;;;19.10;99.90;;;;;;5035719;28;20172;-61
2022/07/15 07:25:56;;;;;;;0.17;0.17;;;19.00;99.90;;;;;;5017922;28;20707;-62
2022/07/15 07:28:22;;;;;;;0.20;0.20;;;18.90;99.90;;;;;;5035510;28;20176;-61
2022/07/15 07:30:50;;;;;;;0.40;0.40;;;18.90;99.90;;;;;;5017840;28;20207;-61
2022/07/15 07:33:16;;;;;;;0.85;0.30;;;18.90;99.90;;;;;;5002023;28;20184;-61
2022/07/15 07:35:43;;;;;;;0.20;0.20;;;19.10;99.90;;;;;;5017654;28;20177;-62
2022/07/15 07:38:09;;;;;;;0.22;0.20;;;19.20;99.40;;;;;;5035482;28;20288;-61
2022/07/15 07:40:35;;;;;;;0.57;0.10;;;19.40;99.30;;;;;;5035347;28;20607;-61
2022/07/15 07:43:01;;;;;;;0.38;0.28;;;19.70;99.40;;;;;;5035353;28;20251;-61
2022/07/15 07:45:28;;;;;;;0.20;0.20;;;20.00;98.10;;;;;;5001582;28;20315;-64
2022/07/15 07:47:57;;;;;;;0.20;0.20;;;19.80;97.80;;;;;;5035034;28;20207;-62
2022/07/15 07:50:23;;;;;;;0.40;0.22;;;19.90;98.40;;;;;;5017436;28;20262;-61
2022/07/15 07:52:48;;;;;;;0.57;0.20;;;19.70;98.40;;;;;;5035171;28;20184;-62
2022/07/15 07:55:14;;;;;;;0.85;0.20;;;19.70;98.50;;;;;;5017402;28;20653;-61
2022/07/15 07:57:51;;;;;;;0.32;0.10;;;20.00;98.90;;;;;;5034826;28;20234;-63
2022/07/15 08:00:18;;;;;;;0.35;0.28;;;20.40;97.80;;;;;;5034872;28;20176;-61
2022/07/15 08:02:45;;;;;;;0.30;0.30;;;20.50;97.40;;;;;;5034233;28;20672;-61
2022/07/15 08:05:11;;;;;;;0.20;0.03;;;20.40;97.20;;;;;;5034953;28;20510;-62
2022/07/15 08:07:37;;;;;;;1.02;0.20;;;20.30;96.70;;;;;;5034825;28;20211;-61
2022/07/15 08:10:04;;;;;;;0.13;0.13;;;20.50;97.40;;;;;;5034710;28;20219;-62
2022/07/15 08:12:30;;;;;;;0.45;0.43;;;20.80;97.10;;;;;;5034670;28;20186;-61
2022/07/15 08:14:56;;;;;;;0.20;0.20;;;20.90;96.40;;;;;;5034506;28;20199;-61
2022/07/15 08:17:22;;;;;;;0.28;0.20;;;21.00;96.90;;;;;;5034759;28;20214;-60
2022/07/15 08:19:48;;;;;;;1.02;0.10;;;21.00;95.70;;;;;;5034891;28;20191;-61
2022/07/15 08:22:14;;;;;;;0.10;0.10;;;20.90;96.10;;;;;;5034497;28;20183;-61
2022/07/15 08:24:40;;;;;;;0.30;0.30;;;21.20;96.90;;;;;;5016660;28;20172;-61
2022/07/15 08:27:05;;;;;;;0.10;0.10;;;21.60;96.60;;;;;;5034380;28;20172;-61
2022/07/15 08:29:31;;;;;;;0.73;0.43;;;21.70;96.00;;;;;;5016574;28;20183;-60
2022/07/15 08:31:57;;;;;;;0.15;0.10;;;21.60;95.80;;;;;;5000350;28;20218;-62
2022/07/15 08:34:23;;;;;;;1.35;0.30;;;21.70;95.20;;;;;;5034262;28;20191;-62
2022/07/15 08:36:48;;;;;;;1.02;0.40;;;21.80;95.80;;;;;;5034194;28;20180;-62
2022/07/15 08:39:15;;;;;;;0.32;0.28;;;21.90;95.40;;;;;;5034374;28;20172;-62
2022/07/15 08:41:41;;;;;;;1.20;0.30;;;21.80;94.60;;;;;;5034016;28;20242;-62
2022/07/15 08:44:07;;;;;;;1.08;0.10;;;22.00;94.70;;;;;;5034255;28;20175;-62
2022/07/15 08:46:35;;;;;;;0.30;0.30;;;21.90;95.60;;;;;;5034258;28;20246;-62
2022/07/15 08:49:12;;;;;;;0.25;0.25;;;22.00;95.30;;;;;;5033904;28;20183;-62
2022/07/15 08:51:43;;;;;;;0.47;0.20;;;22.40;94.50;;;;;;5034057;28;20195;-62
2022/07/15 08:54:10;;;;;;;0.95;0.30;;;22.70;93.70;;;;;;5033889;28;20218;-62
2022/07/15 08:56:37;;;;;;;2.35;0.20;;;22.40;93.90;;;;;;5033822;28;20176;-62
2022/07/15 08:59:04;;;;;;;2.47;0.32;;;22.20;94.00;;;;;;5033689;28;20187;-62
2022/07/15 09:01:31;;;;;;;0.85;0.20;;;22.30;94.10;;;;;;5016250;28;20282;-62
2022/07/15 09:03:57;;;;;;;0.70;0.25;;;21.90;93.60;;;;;;5033825;28;20168;-61
2022/07/15 09:06:40;;;;;;;0.10;0.10;;;22.20;93.40;;;;;;5016202;28;20264;-62
2022/07/15 09:09:24;;;;;;;0.22;0.10;;;21.80;93.60;;;;;;5033372;28;20181;-62
2022/07/15 09:11:59;;;;;;;0.55;0.20;;;21.00;93.60;;;;;;5033712;28;20207;-62
2022/07/15 09:14:28;;;;;;;0.20;0.20;;;21.40;94.10;;;;;;5032838;28;20179;-63
2022/07/15 09:17:11;;;;;;;0.13;0.10;;;21.60;94.20;;;;;;5033538;28;20258;-62
2022/07/15 09:19:56;;;;;;;1.42;0.30;;;22.10;93.50;;;;;;5033411;28;20176;-62
2022/07/15 09:22:22;;;;;;;0.98;0.10;;;22.40;92.90;;;;;;5033611;28;20226;-62
2022/07/15 09:25:17;;;;;;;0.10;0.10;;;22.80;92.40;;;;;;5033364;28;20179;-62
2022/07/15 09:27:44;;;;;;;0.20;0.20;;;22.80;92.10;;;;;;5029253;28;20595;-62
2022/07/15 09:36:02;;;;;;;0.10;0.10;;;23.10;92.00;;;;;;5033617;28;20214;-62
2022/07/15 09:38:31;;;;;;;0.13;0.10;;;22.70;91.80;;;;;;4999172;28;20179;-62
2022/07/15 09:40:57;;;;;;;0.85;0.20;;;22.70;91.80;;;;;;5033144;28;20195;-62
2022/07/15 09:43:23;;;;;;;0.30;0.30;;;22.60;91.50;;;;;;4999387;28;20180;-62
2022/07/15 09:45:57;;;;;;;1.48;0.35;;;22.40;91.20;;;;;;5033348;28;20226;-62
2022/07/15 09:48:25;;;;;;;0.30;0.20;;;22.70;91.80;;;;;;5033180;28;20536;-62
2022/07/15 09:50:50;;;;;;;1.20;0.20;;;22.90;91.20;;;;;;5032998;28;20199;-62
2022/07/15 09:53:16;;;;;;;0.32;0.32;;;23.20;91.20;;;;;;5015540;28;20617;-62
2022/07/15 09:55:42;;;;;;;0.15;0.15;;;23.70;91.30;;;;;;5033247;28;20178;-62
2022/07/15 09:58:09;;;;;;;0.20;0.20;;;23.80;91.20;;;;;;5033189;28;20176;-62
2022/07/15 10:00:38;;;;;;;0.10;0.10;;;24.20;90.90;;;;;;5033243;28;20649;-62
2022/07/15 10:03:04;;;;;;;1.38;0.20;;;24.30;90.70;;;;;;5015500;28;20262;-62
2022/07/15 10:05:32;;;;;;;0.30;0.30;;;24.70;90.80;;;;;;5032967;28;20176;-62
2022/07/15 10:08:01;;;;;;;0.20;0.20;;;24.40;90.90;;;;;;5033146;28;20187;-62
2022/07/15 10:10:27;;;;;;;0.28;0.20;;;24.30;91.20;;;;;;5032861;28;20231;-62
2022/07/15 10:13:30;;;;;;;2.33;0.30;;;24.50;90.80;;;;;;5033015;28;20180;-62
2022/07/15 10:16:23;;;;;;;0.30;0.25;;;23.80;90.90;;;;;;5032891;28;20579;-62
2022/07/15 10:19:48;;;;;;;0.20;0.20;;;23.10;91.50;;;;;;5033013;28;20179;-62
2022/07/15 10:22:35;;;;;;;0.35;0.17;;;22.60;91.80;;;;;;4991320;28;20178;-64
2022/07/15 10:25:19;;;;;;;0.50;0.30;;;22.30;92.50;;;;;;5031046;28;20180;-62
2022/07/15 10:27:54;;;;;;;0.40;0.40;;;22.00;92.50;;;;;;5036742;28;20176;-62
2022/07/15 10:30:22;;;;;;;0.60;0.38;;;21.90;91.70;;;;;;5036419;28;20217;-61
2022/07/15 10:33:07;;;;;;;0.47;0.47;;;22.20;91.90;;;;;;5036743;28;20184;-62
2022/07/15 10:35:41;;;;;;;1.20;0.45;;;22.70;91.60;;;;;;5036561;28;20176;-62
2022/07/15 10:38:24;;;;;;;0.57;0.43;;;23.40;91.60;;;;;;5018845;28;20167;-60
2022/07/15 10:41:10;;;;;;;0.40;0.40;;;23.80;90.90;;;;;;5018531;28;20196;-62
2022/07/15 10:43:40;;;;;;;0.40;0.38;;;23.70;90.90;;;;;;5036589;28;20230;-62
2022/07/15 10:46:17;;;;;;;0.32;0.30;;;23.30;90.90;;;;;;5036237;28;20199;-62
2022/07/15 10:48:44;;;;;;;1.05;0.30;;;22.90;90.90;;;;;;5036553;28;20172;-62
2022/07/15 10:51:10;;;;;;;1.13;0.30;;;22.90;91.10;;;;;;5035974;28;20212;-62
2022/07/15 10:53:47;;;;;;;0.47;0.30;;;22.90;90.60;;;;;;5036301;28;20187;-62
2022/07/15 10:56:34;;;;;;;0.30;0.30;;;23.10;89.80;;;;;;5036246;28;20163;-62
2022/07/15 10:59:16;;;;;;;0.30;0.30;;;22.80;91.20;;;;;;5036055;28;20202;-62
2022/07/15 11:01:46;;;;;;;0.35;0.35;;;22.60;92.00;;;;;;5035998;28;20187;-62
2022/07/15 11:04:23;;;;;;;0.25;0.25;;;22.70;92.30;;;;;;5036253;28;20603;-62
2022/07/15 11:07:06;;;;;;;0.30;0.20;;;23.20;92.60;;;;;;5018419;28;20230;-62
2022/07/15 11:10:03;;;;;;;0.32;0.32;;;23.60;91.60;;;;;;5018039;28;20641;-61
2022/07/15 11:12:28;;;;;;;0.22;0.22;;;23.80;91.10;;;;;;5035952;28;20219;-62
2022/07/15 11:14:59;;;;;;;0.30;0.30;;;24.30;91.00;;;;;;5035957;28;20191;-62
2022/07/15 11:17:33;;;;;;;0.30;0.30;;;24.60;89.90;;;;;;5035849;28;20564;-62
2022/07/15 11:20:08;;;;;;;0.73;0.40;;;24.70;88.80;;;;;;5035624;28;20529;-62
2022/07/15 11:22:36;;;;;;;0.95;0.32;;;24.70;88.80;;;;;;5035599;28;20191;-62
2022/07/15 11:25:05;;;;;;;0.30;0.30;;;23.60;88.60;;;;;;5035807;28;20617;-62
2022/07/15 11:27:31;;;;;;;3.70;0.40;;;23.50;89.20;;;;;;5035668;28;20172;-60
2022/07/15 11:30:03;;;;;;;0.30;0.30;;;23.10;90.00;;;;;;5017952;28;20210;-62
2022/07/15 11:32:36;;;;;;;0.40;0.40;;;23.00;90.90;;;;;;5035476;28;20229;-62
2022/07/15 11:35:03;;;;;;;0.30;0.30;;;22.90;90.60;;;;;;5002338;28;20226;-62
2022/07/15 11:37:35;;;;;;;0.47;0.45;;;23.30;90.90;;;;;;5034641;28;20194;-62
2022/07/15 11:45:47;;;;;;;0.45;0.40;;;23.30;89.30;;;;;;5035567;28;20203;-62
2022/07/15 11:48:13;;;;;;;2.25;0.40;;;23.00;90.20;;;;;;5035307;28;20617;-62
2022/07/15 11:50:52;;;;;;;1.73;0.40;;;23.10;91.10;;;;;;5035181;28;20290;-62
2022/07/15 11:53:18;;;;;;;0.40;0.40;;;23.10;90.90;;;;;;5035299;28;20647;-62
2022/07/15 11:55:53;;;;;;;0.40;0.40;;;23.00;90.20;;;;;;5000938;28;20180;-61
2022/07/15 11:58:52;;;;;;;0.43;0.40;;;22.80;90.70;;;;;;5035197;28;20258;-62
2022/07/15 12:01:24;;;;;;;0.35;0.35;;;23.20;90.80;;;;;;5002663;28;20279;-62
2022/07/15 12:03:53;;;;;;;0.52;0.50;;;23.30;91.40;;;;;;5035112;28;20172;-62
2022/07/15 12:06:31;;;;;;;0.68;0.40;;;23.60;91.50;;;;;;5034720;28;20625;-62
2022/07/15 12:08:58;;;;;;;0.90;0.60;;;23.70;89.20;;;;;;5034743;28;20179;-62
2022/07/15 12:11:30;;;;;;;0.38;0.30;;;24.00;90.00;;;;;;5034842;28;20349;-62
2022/07/15 12:14:03;;;;;;;0.68;0.60;;;24.30;90.70;;;;;;5034591;28;20184;-61
2022/07/15 12:16:30;;;;;;;0.50;0.50;;;24.30;89.90;;;;;;5016994;28;20171;-62
2022/07/15 12:18:59;;;;;;;1.13;0.40;;;24.30;90.00;;;;;;5016664;28;20648;-61
2022/07/15 12:21:26;;;;;;;0.40;0.30;;;24.50;89.20;;;;;;5034621;28;20187;-62
2022/07/15 12:24:35;;;;;;;1.35;0.60;;;24.30;90.10;;;;;;5034527;28;20184;-62
2022/07/15 12:27:01;;;;;;;1.77;0.50;;;24.40;90.90;;;;;;5034415;28;20179;-62
2022/07/15 12:29:30;;;;;;;0.45;0.45;;;24.50;89.90;;;;;;5034406;28;20536;-62
2022/07/15 12:32:06;;;;;;;0.70;0.47;;;24.20;90.40;;;;;;5034367;28;20204;-60
2022/07/15 12:34:47;;;;;;;0.50;0.50;;;23.60;90.60;;;;;;5034434;28;20187;-60
2022/07/15 12:37:13;;;;;;;0.30;0.30;;;23.30;91.00;;;;;;5034344;28;20172;-61
2022/07/15 12:40:05;;;;;;;0.30;0.30;;;23.50;91.20;;;;;;5034209;28;20576;-62
2022/07/15 12:42:44;;;;;;;0.40;0.40;;;23.60;91.20;;;;;;5034008;28;20206;-60
2022/07/15 12:45:14;;;;;;;1.20;0.30;;;23.80;90.20;;;;;;5034047;28;20640;-60
2022/07/15 12:48:03;;;;;;;0.43;0.35;;;23.90;90.20;;;;;;5033917;28;20279;-61
2022/07/15 12:50:34;;;;;;;0.70;0.50;;;23.60;90.70;;;;;;5034124;28;20187;-61
2022/07/15 12:53:00;;;;;;;0.70;0.40;;;23.70;90.80;;;;;;5034489;28;20540;-60
2022/07/15 12:55:39;;;;;;;0.40;0.40;;;23.60;90.60;;;;;;5016237;28;20267;-61
2022/07/15 12:58:14;;;;;;;0.40;0.40;;;24.00;90.70;;;;;;5033800;28;20172;-60
2022/07/15 13:00:40;;;;;;;0.30;0.30;;;24.00;90.60;;;;;;5033757;28;20655;-60
2022/07/15 13:03:10;;;;;;;0.63;0.40;;;23.60;90.60;;;;;;5016231;28;20172;-61
2022/07/15 13:05:45;;;;;;;0.40;0.40;;;23.70;90.80;;;;;;5033802;28;20175;-61
2022/07/15 13:08:14;;;;;;;1.17;0.50;;;24.30;90.70;;;;;;5033659;28;20175;-61
2022/07/15 13:10:42;;;;;;;0.52;0.40;;;24.70;90.20;;;;;;5033347;28;20428;-61
2022/07/15 13:13:09;;;;;;;0.30;0.30;;;24.80;89.10;;;;;;5033512;28;20202;-60